sensor_id;sensor_type;location;lat;lon;timestamp;temperature;humidity
43151;DHT22;28755;51.478;5.702;2022-07-18T17:53:26;33.20;72.10
43151;DHT22;28755;51.478;5.702;2022-07-18T17:55:52;32.70;72.20
43151;DHT22;28755;51.478;5.702;2022-07-18T17:58:17;32.70;71.70
43151;DHT22;28755;51.478;5.702;2022-07-18T18:00:43;32.70;71.60
43151;DHT22;28755;51.478;5.702;2022-07-18T18:03:09;32.60;71.60
43151;DHT22;28755;51.478;5.702;2022-07-18T18:05:34;32.60;72.00
43151;DHT22;28755;51.478;5.702;2022-07-18T18:08:00;32.60;72.30
43151;DHT22;28755;51.478;5.702;2022-07-18T18:10:26;32.60;72.40
43151;DHT22;28755;51.478;5.702;2022-07-18T18:12:52;32.50;72.20
43151;DHT22;28755;51.478;5.702;2022-07-18T18:15:18;32.50;72.60
43151;DHT22;28755;51.478;5.702;2022-07-18T18:17:43;32.40;72.30
43151;DHT22;28755;51.478;5.702;2022-07-18T18:20:09;32.40;72.80
43151;DHT22;28755;51.478;5.702;2022-07-18T18:22:35;32.30;73.00
43151;DHT22;28755;51.478;5.702;2022-07-18T18:25:00;32.20;73.40
43151;DHT22;28755;51.478;5.702;2022-07-18T18:27:26;32.20;73.30
43151;DHT22;28755;51.478;5.702;2022-07-18T18:29:51;32.10;73.40
43151;DHT22;28755;51.478;5.702;2022-07-18T18:32:17;32.00;73.50
43151;DHT22;28755;51.478;5.702;2022-07-18T18:34:43;31.90;73.50
43151;DHT22;28755;51.478;5.702;2022-07-18T18:37:09;31.90;74.00
43151;DHT22;28755;51.478;5.702;2022-07-18T18:39:37;31.80;74.20
43151;DHT22;28755;51.478;5.702;2022-07-18T18:42:09;31.70;74.50
43151;DHT22;28755;51.478;5.702;2022-07-18T18:44:36;31.70;74.90
43151;DHT22;28755;51.478;5.702;2022-07-18T18:47:02;31.60;75.20
43151;DHT22;28755;51.478;5.702;2022-07-18T18:49:28;31.50;76.10
43151;DHT22;28755;51.478;5.702;2022-07-18T18:51:54;31.40;76.70
43151;DHT22;28755;51.478;5.702;2022-07-18T18:54:20;31.20;77.00
43151;DHT22;28755;51.478;5.702;2022-07-18T18:56:46;31.10;77.60
43151;DHT22;28755;51.478;5.702;2022-07-18T18:59:12;31.00;77.90
43151;DHT22;28755;51.478;5.702;2022-07-18T19:01:39;30.80;78.40
43151;DHT22;28755;51.478;5.702;2022-07-18T19:04:05;30.70;79.00
43151;DHT22;28755;51.478;5.702;2022-07-18T19:06:31;30.60;79.00
43151;DHT22;28755;51.478;5.702;2022-07-18T19:08:57;30.60;79.00
43151;DHT22;28755;51.478;5.702;2022-07-18T19:11:23;30.50;79.40
43151;DHT22;28755;51.478;5.702;2022-07-18T19:13:50;30.40;79.80
43151;DHT22;28755;51.478;5.702;2022-07-18T19:16:17;30.40;80.30
43151;DHT22;28755;51.478;5.702;2022-07-18T19:18:49;30.20;80.60
43151;DHT22;28755;51.478;5.702;2022-07-18T19:21:16;30.10;81.00
43151;DHT22;28755;51.478;5.702;2022-07-18T19:23:42;30.00;81.30
43151;DHT22;28755;51.478;5.702;2022-07-18T19:26:08;29.90;82.10
43151;DHT22;28755;51.478;5.702;2022-07-18T19:28:34;29.70;82.70
43151;DHT22;28755;51.478;5.702;2022-07-18T19:31:00;29.60;82.60
43151;DHT22;28755;51.478;5.702;2022-07-18T19:33:29;29.40;82.80
43151;DHT22;28755;51.478;5.702;2022-07-18T19:35:56;29.40;83.00
43151;DHT22;28755;51.478;5.702;2022-07-18T19:38:21;29.30;83.10
43151;DHT22;28755;51.478;5.702;2022-07-18T19:40:47;29.20;82.90
43151;DHT22;28755;51.478;5.702;2022-07-18T19:43:13;29.10;83.40
43151;DHT22;28755;51.478;5.702;2022-07-18T19:45:42;29.00;83.80
43151;DHT22;28755;51.478;5.702;2022-07-18T19:48:08;28.90;84.20
43151;DHT22;28755;51.478;5.702;2022-07-18T19:50:34;28.80;84.70
43151;DHT22;28755;51.478;5.702;2022-07-18T19:52:59;28.70;85.10
43151;DHT22;28755;51.478;5.702;2022-07-18T19:55:25;28.50;85.40
43151;DHT22;28755;51.478;5.702;2022-07-18T19:57:52;28.40;85.70
43151;DHT22;28755;51.478;5.702;2022-07-18T20:00:18;28.40;86.20
43151;DHT22;28755;51.478;5.702;2022-07-18T20:02:45;28.40;86.40
43151;DHT22;28755;51.478;5.702;2022-07-18T20:05:11;28.20;86.60
43151;DHT22;28755;51.478;5.702;2022-07-18T20:07:37;28.20;86.70
43151;DHT22;28755;51.478;5.702;2022-07-18T20:10:04;28.00;87.00
43151;DHT22;28755;51.478;5.702;2022-07-18T20:12:30;27.90;87.70
43151;DHT22;28755;51.478;5.702;2022-07-18T20:14:56;27.70;88.00
43151;DHT22;28755;51.478;5.702;2022-07-18T20:17:21;27.70;88.30
43151;DHT22;28755;51.478;5.702;2022-07-18T20:19:48;27.60;88.60
43151;DHT22;28755;51.478;5.702;2022-07-18T20:22:14;27.50;88.80
43151;DHT22;28755;51.478;5.702;2022-07-18T20:24:40;27.50;88.80
43151;DHT22;28755;51.478;5.702;2022-07-18T20:27:06;27.40;88.80
43151;DHT22;28755;51.478;5.702;2022-07-18T20:29:32;27.30;88.80
43151;DHT22;28755;51.478;5.702;2022-07-18T20:31:57;27.20;89.50
43151;DHT22;28755;51.478;5.702;2022-07-18T20:34:23;27.20;89.80
43151;DHT22;28755;51.478;5.702;2022-07-18T20:36:48;27.10;90.00
43151;DHT22;28755;51.478;5.702;2022-07-18T20:39:14;27.00;90.10
43151;DHT22;28755;51.478;5.702;2022-07-18T20:41:39;26.90;90.10
43151;DHT22;28755;51.478;5.702;2022-07-18T20:44:05;26.80;90.40
43151;DHT22;28755;51.478;5.702;2022-07-18T20:46:30;26.80;90.60
43151;DHT22;28755;51.478;5.702;2022-07-18T20:48:56;26.70;90.80
43151;DHT22;28755;51.478;5.702;2022-07-18T20:51:24;26.60;91.00
43151;DHT22;28755;51.478;5.702;2022-07-18T20:53:49;26.50;91.10
43151;DHT22;28755;51.478;5.702;2022-07-18T20:56:15;26.50;91.30
43151;DHT22;28755;51.478;5.702;2022-07-18T20:58:41;26.40;91.50
43151;DHT22;28755;51.478;5.702;2022-07-18T21:01:06;26.50;91.70
43151;DHT22;28755;51.478;5.702;2022-07-18T21:03:32;26.30;91.80
43151;DHT22;28755;51.478;5.702;2022-07-18T21:05:57;26.20;92.10
43151;DHT22;28755;51.478;5.702;2022-07-18T21:08:23;26.10;92.40
43151;DHT22;28755;51.478;5.702;2022-07-18T21:10:49;26.20;92.70
43151;DHT22;28755;51.478;5.702;2022-07-18T21:13:15;26.00;93.10
43151;DHT22;28755;51.478;5.702;2022-07-18T21:15:41;26.00;93.00
43151;DHT22;28755;51.478;5.702;2022-07-18T21:18:06;25.90;93.00
43151;DHT22;28755;51.478;5.702;2022-07-18T21:20:32;25.90;93.10
43151;DHT22;28755;51.478;5.702;2022-07-18T21:22:58;25.90;93.20
43151;DHT22;28755;51.478;5.702;2022-07-18T21:25:26;25.90;93.30
43151;DHT22;28755;51.478;5.702;2022-07-18T21:27:52;25.70;93.40
43151;DHT22;28755;51.478;5.702;2022-07-18T21:30:18;25.60;94.20
43151;DHT22;28755;51.478;5.702;2022-07-18T21:32:47;25.50;94.60
43151;DHT22;28755;51.478;5.702;2022-07-18T21:35:14;25.40;94.90
43151;DHT22;28755;51.478;5.702;2022-07-18T21:37:40;25.40;95.30
43151;DHT22;28755;51.478;5.702;2022-07-18T21:40:06;25.40;95.50
43151;DHT22;28755;51.478;5.702;2022-07-18T21:42:32;25.40;95.80
43151;DHT22;28755;51.478;5.702;2022-07-18T21:44:58;25.40;95.90
43151;DHT22;28755;51.478;5.702;2022-07-18T21:47:25;25.40;96.00
43151;DHT22;28755;51.478;5.702;2022-07-18T21:49:51;25.30;96.30
43151;DHT22;28755;51.478;5.702;2022-07-18T21:52:18;25.10;96.70
43151;DHT22;28755;51.478;5.702;2022-07-18T21:54:44;25.10;97.20
43151;DHT22;28755;51.478;5.702;2022-07-18T21:57:09;25.10;97.50
43151;DHT22;28755;51.478;5.702;2022-07-18T21:59:35;25.10;97.80
43151;DHT22;28755;51.478;5.702;2022-07-18T22:02:01;25.00;98.20
43151;DHT22;28755;51.478;5.702;2022-07-18T22:04:26;25.00;98.40
43151;DHT22;28755;51.478;5.702;2022-07-18T22:06:52;24.90;98.80
43151;DHT22;28755;51.478;5.702;2022-07-18T22:09:18;24.80;99.10
43151;DHT22;28755;51.478;5.702;2022-07-18T22:11:45;24.80;99.60
43151;DHT22;28755;51.478;5.702;2022-07-18T22:14:13;24.60;99.90
43151;DHT22;28755;51.478;5.702;2022-07-18T22:16:39;24.70;99.60
43151;DHT22;28755;51.478;5.702;2022-07-18T22:19:05;24.70;99.50
43151;DHT22;28755;51.478;5.702;2022-07-18T22:21:31;24.70;99.50
43151;DHT22;28755;51.478;5.702;2022-07-18T22:23:56;24.60;99.80
43151;DHT22;28755;51.478;5.702;2022-07-18T22:26:22;24.60;99.80
43151;DHT22;28755;51.478;5.702;2022-07-18T22:28:49;24.60;99.40
43151;DHT22;28755;51.478;5.702;2022-07-18T22:31:14;24.50;99.60
43151;DHT22;28755;51.478;5.702;2022-07-18T22:33:41;24.50;99.90
43151;DHT22;28755;51.478;5.702;2022-07-18T22:36:07;24.30;99.90
43151;DHT22;28755;51.478;5.702;2022-07-18T22:38:33;24.30;99.90
43151;DHT22;28755;51.478;5.702;2022-07-18T22:40:58;24.20;99.90
43151;DHT22;28755;51.478;5.702;2022-07-18T22:43:24;24.10;99.90
43151;DHT22;28755;51.478;5.702;2022-07-18T22:45:49;24.00;99.90
43151;DHT22;28755;51.478;5.702;2022-07-18T22:48:15;23.90;99.90
43151;DHT22;28755;51.478;5.702;2022-07-18T22:50:41;23.90;99.90
43151;DHT22;28755;51.478;5.702;2022-07-18T22:53:06;24.00;99.90
43151;DHT22;28755;51.478;5.702;2022-07-18T22:55:32;23.80;99.90
43151;DHT22;28755;51.478;5.702;2022-07-18T22:57:58;23.90;99.90
43151;DHT22;28755;51.478;5.702;2022-07-18T23:00:24;23.70;99.90
43151;DHT22;28755;51.478;5.702;2022-07-18T23:02:50;23.70;99.90
43151;DHT22;28755;51.478;5.702;2022-07-18T23:05:15;23.70;99.90
43151;DHT22;28755;51.478;5.702;2022-07-18T23:07:55;23.70;99.90
43151;DHT22;28755;51.478;5.702;2022-07-18T23:10:23;23.70;99.90
43151;DHT22;28755;51.478;5.702;2022-07-18T23:12:49;23.70;99.90
43151;DHT22;28755;51.478;5.702;2022-07-18T23:15:15;23.70;99.90
43151;DHT22;28755;51.478;5.702;2022-07-18T23:17:41;23.70;99.90
43151;DHT22;28755;51.478;5.702;2022-07-18T23:20:07;23.70;99.90
43151;DHT22;28755;51.478;5.702;2022-07-18T23:22:34;23.60;99.90
43151;DHT22;28755;51.478;5.702;2022-07-18T23:25:04;23.60;99.90
43151;DHT22;28755;51.478;5.702;2022-07-18T23:27:31;23.50;99.90
43151;DHT22;28755;51.478;5.702;2022-07-18T23:29:57;23.50;99.90
43151;DHT22;28755;51.478;5.702;2022-07-18T23:32:22;23.40;99.90
43151;DHT22;28755;51.478;5.702;2022-07-18T23:34:48;23.40;99.90
43151;DHT22;28755;51.478;5.702;2022-07-18T23:37:13;23.30;99.90
43151;DHT22;28755;51.478;5.702;2022-07-18T23:39:39;23.30;99.90
43151;DHT22;28755;51.478;5.702;2022-07-18T23:42:05;23.20;99.90
43151;DHT22;28755;51.478;5.702;2022-07-18T23:44:31;23.20;99.90
43151;DHT22;28755;51.478;5.702;2022-07-18T23:46:57;23.20;99.90
43151;DHT22;28755;51.478;5.702;2022-07-18T23:49:27;23.10;99.90
43151;DHT22;28755;51.478;5.702;2022-07-18T23:51:53;23.00;99.90
43151;DHT22;28755;51.478;5.702;2022-07-18T23:54:19;23.00;99.90
43151;DHT22;28755;51.478;5.702;2022-07-18T23:56:45;22.80;99.90
43151;DHT22;28755;51.478;5.702;2022-07-18T23:59:10;22.80;99.90
